sensor_id;sensor_type;location;lat;lon;timestamp;temperature;humidity
37158;DHT22;23050;51.776;22.638;2022-11-20T00:00:57;-5.80;99.90
37158;DHT22;23050;51.776;22.638;2022-11-20T00:03:31;-5.70;99.90
37158;DHT22;23050;51.776;22.638;2022-11-20T00:06:08;-5.70;99.90
37158;DHT22;23050;51.776;22.638;2022-11-20T00:08:34;-5.70;99.90
37158;DHT22;23050;51.776;22.638;2022-11-20T00:11:05;-5.70;99.90
37158;DHT22;23050;51.776;22.638;2022-11-20T00:13:33;-5.70;99.90
37158;DHT22;23050;51.776;22.638;2022-11-20T00:16:00;-5.80;99.90
37158;DHT22;23050;51.776;22.638;2022-11-20T00:18:27;-5.80;99.90
37158;DHT22;23050;51.776;22.638;2022-11-20T00:20:53;-5.80;99.90
37158;DHT22;23050;51.776;22.638;2022-11-20T00:23:19;-5.90;99.90
37158;DHT22;23050;51.776;22.638;2022-11-20T00:25:46;-5.90;99.90
37158;DHT22;23050;51.776;22.638;2022-11-20T15:54:19;-0.90;99.90
37158;DHT22;23050;51.776;22.638;2022-11-20T15:56:49;-0.90;99.90
37158;DHT22;23050;51.776;22.638;2022-11-20T16:02:41;-0.90;99.90
37158;DHT22;23050;51.776;22.638;2022-11-20T16:05:28;-0.90;99.90
37158;DHT22;23050;51.776;22.638;2022-11-20T16:12:12;-0.90;99.90
37158;DHT22;23050;51.776;22.638;2022-11-20T16:18:22;-1.00;99.90
37158;DHT22;23050;51.776;22.638;2022-11-20T16:20:52;-0.90;99.90
37158;DHT22;23050;51.776;22.638;2022-11-20T16:29:31;-1.00;99.90
37158;DHT22;23050;51.776;22.638;2022-11-20T16:32:02;-1.10;99.90
37158;DHT22;23050;51.776;22.638;2022-11-20T16:41:13;-1.20;99.90
37158;DHT22;23050;51.776;22.638;2022-11-20T16:43:59;-1.20;99.90
37158;DHT22;23050;51.776;22.638;2022-11-20T16:46:38;-1.20;99.90
37158;DHT22;23050;51.776;22.638;2022-11-20T16:53:28;-1.20;99.90
37158;DHT22;23050;51.776;22.638;2022-11-20T16:56:25;-1.20;99.90
37158;DHT22;23050;51.776;22.638;2022-11-20T17:03:44;-1.20;99.90
37158;DHT22;23050;51.776;22.638;2022-11-20T17:06:24;-1.20;99.90
37158;DHT22;23050;51.776;22.638;2022-11-20T17:16:16;-1.30;99.90
37158;DHT22;23050;51.776;22.638;2022-11-20T17:22:36;-1.30;99.90
37158;DHT22;23050;51.776;22.638;2022-11-20T17:35:34;-1.30;99.90
37158;DHT22;23050;51.776;22.638;2022-11-20T17:38:37;-1.30;99.90
37158;DHT22;23050;51.776;22.638;2022-11-20T17:41:22;-1.30;99.90
37158;DHT22;23050;51.776;22.638;2022-11-20T17:44:00;-1.30;99.90
37158;DHT22;23050;51.776;22.638;2022-11-20T17:50:13;-1.30;99.90
37158;DHT22;23050;51.776;22.638;2022-11-20T17:52:43;-1.30;99.90
37158;DHT22;23050;51.776;22.638;2022-11-20T17:55:36;-1.30;99.90
37158;DHT22;23050;51.776;22.638;2022-11-20T18:02:08;-1.30;99.90
37158;DHT22;23050;51.776;22.638;2022-11-20T18:04:35;-1.40;99.90
37158;DHT22;23050;51.776;22.638;2022-11-20T18:07:02;-1.40;99.90
37158;DHT22;23050;51.776;22.638;2022-11-20T18:09:28;-1.40;99.90
37158;DHT22;23050;51.776;22.638;2022-11-20T18:12:17;-1.50;99.90
37158;DHT22;23050;51.776;22.638;2022-11-20T18:14:53;-1.50;99.90
37158;DHT22;23050;51.776;22.638;2022-11-20T18:17:40;-1.60;99.90
37158;DHT22;23050;51.776;22.638;2022-11-20T18:20:14;-1.70;99.90
37158;DHT22;23050;51.776;22.638;2022-11-20T18:25:59;-1.90;99.90
37158;DHT22;23050;51.776;22.638;2022-11-20T18:28:40;-2.00;99.90
37158;DHT22;23050;51.776;22.638;2022-11-20T18:31:07;-2.10;99.90
37158;DHT22;23050;51.776;22.638;2022-11-20T18:54:53;-2.70;99.90
37158;DHT22;23050;51.776;22.638;2022-11-20T19:04:25;-2.70;99.90
37158;DHT22;23050;51.776;22.638;2022-11-20T19:07:08;-2.80;99.90
37158;DHT22;23050;51.776;22.638;2022-11-20T19:09:46;-2.80;99.90
37158;DHT22;23050;51.776;22.638;2022-11-20T19:13:02;-2.80;99.90
37158;DHT22;23050;51.776;22.638;2022-11-20T19:19:19;-2.80;99.90
37158;DHT22;23050;51.776;22.638;2022-11-20T19:21:47;-2.80;99.90
37158;DHT22;23050;51.776;22.638;2022-11-20T19:24:16;-2.70;99.90
37158;DHT22;23050;51.776;22.638;2022-11-20T19:29:48;-2.70;99.90
37158;DHT22;23050;51.776;22.638;2022-11-20T19:32:25;-2.70;99.90
37158;DHT22;23050;51.776;22.638;2022-11-20T19:36:34;-2.60;99.90
37158;DHT22;23050;51.776;22.638;2022-11-20T19:39:07;-2.50;99.90
37158;DHT22;23050;51.776;22.638;2022-11-20T19:45:53;-2.40;99.90
37158;DHT22;23050;51.776;22.638;2022-11-20T20:07:15;-2.30;99.90
37158;DHT22;23050;51.776;22.638;2022-11-20T20:10:26;-2.30;99.90
37158;DHT22;23050;51.776;22.638;2022-11-20T20:19:47;-2.20;99.90
37158;DHT22;23050;51.776;22.638;2022-11-20T20:22:38;-2.20;99.90
37158;DHT22;23050;51.776;22.638;2022-11-20T20:25:07;-2.10;99.90
37158;DHT22;23050;51.776;22.638;2022-11-20T20:27:39;-2.10;99.90
37158;DHT22;23050;51.776;22.638;2022-11-20T20:30:15;-2.00;99.90
37158;DHT22;23050;51.776;22.638;2022-11-20T20:33:06;-2.00;99.90
37158;DHT22;23050;51.776;22.638;2022-11-20T20:36:08;-1.90;99.90
37158;DHT22;23050;51.776;22.638;2022-11-20T20:45:49;-1.70;99.90
37158;DHT22;23050;51.776;22.638;2022-11-20T20:48:19;-1.70;99.90
37158;DHT22;23050;51.776;22.638;2022-11-20T20:50:53;-1.60;99.90
37158;DHT22;23050;51.776;22.638;2022-11-20T20:53:57;-1.60;99.90
37158;DHT22;23050;51.776;22.638;2022-11-20T20:56:32;-1.50;99.90
37158;DHT22;23050;51.776;22.638;2022-11-20T20:58:57;-1.50;99.90
37158;DHT22;23050;51.776;22.638;2022-11-20T21:01:29;-1.50;99.90
37158;DHT22;23050;51.776;22.638;2022-11-20T21:04:25;-1.50;99.90
37158;DHT22;23050;51.776;22.638;2022-11-20T21:11:08;-1.50;99.90
37158;DHT22;23050;51.776;22.638;2022-11-20T21:13:53;-1.50;99.90
37158;DHT22;23050;51.776;22.638;2022-11-20T21:16:27;-1.50;99.90
37158;DHT22;23050;51.776;22.638;2022-11-20T21:19:21;-1.50;99.90
37158;DHT22;23050;51.776;22.638;2022-11-20T21:22:10;-1.50;99.90
37158;DHT22;23050;51.776;22.638;2022-11-20T21:24:36;-1.50;99.90
37158;DHT22;23050;51.776;22.638;2022-11-20T21:27:04;-1.60;99.90
37158;DHT22;23050;51.776;22.638;2022-11-20T21:29:34;-1.60;99.90
37158;DHT22;23050;51.776;22.638;2022-11-20T21:32:01;-1.50;99.90
37158;DHT22;23050;51.776;22.638;2022-11-20T21:34:27;-1.40;99.90
37158;DHT22;23050;51.776;22.638;2022-11-20T21:37:01;-1.40;99.90
37158;DHT22;23050;51.776;22.638;2022-11-20T21:39:32;-1.30;99.90
37158;DHT22;23050;51.776;22.638;2022-11-20T21:42:00;-1.30;99.90
